Time;durP1;ratioP1;P1;durP2;ratioP2;P2;SDS_P1;SDS_P2;PMS_P1;PMS_P2;Temp;Humidity;BMP_temperature;BMP_pressure;BME280_temperature;BME280_humidity;BME280_pressure;Samples;Min_cycle;Max_cycle;Signal;HPM_P1;HPM_P2
2023/12/12 00:00:29;;;;;;;1.90;1.57;;;;;;;7.47;67.38;100411.13;5028450;27;98276;-52
2023/12/12 00:03:04;;;;;;;2.47;2.10;;;;;;;7.45;67.27;100411.63;5028795;27;97150;-52
2023/12/12 00:05:29;;;;;;;4.20;2.30;;;;;;;7.44;67.42;100417.66;5031769;27;97444;-52
2023/12/12 00:07:55;;;;;;;2.30;1.87;;;;;;;7.44;67.40;100412.16;5028203;27;105340;-52
2023/12/12 00:10:21;;;;;;;2.10;1.90;;;;;;;7.43;67.50;100416.13;5027932;27;97455;-52
2023/12/12 00:12:46;;;;;;;3.90;1.90;;;;;;;7.43;67.47;100418.88;5027170;27;96812;-53
2023/12/12 00:15:11;;;;;;;3.40;2.20;;;;;;;7.45;67.48;100428.16;5029777;27;97213;-53
2023/12/12 00:17:38;;;;;;;3.47;2.20;;;;;;;7.47;67.43;100422.13;5024101;27;97477;-53
2023/12/12 00:20:06;;;;;;;6.70;2.80;;;;;;;7.47;67.24;100433.91;5028714;27;97090;-53
2023/12/12 00:22:32;;;;;;;3.40;2.20;;;;;;;7.45;67.32;100430.91;5028501;27;97064;-53
2023/12/12 00:24:57;;;;;;;3.77;2.60;;;;;;;7.44;67.30;100439.66;5024715;27;98007;-52
2023/12/12 00:27:22;;;;;;;3.37;2.50;;;;;;;7.40;67.28;100441.94;5023304;27;113195;-52
2023/12/12 00:29:48;;;;;;;5.07;2.33;;;;;;;7.39;67.37;100440.41;5026222;27;97064;-52
2023/12/12 00:32:14;;;;;;;3.43;2.37;;;;;;;7.41;67.41;100443.41;5025822;27;97268;-53
2023/12/12 00:34:40;;;;;;;7.30;2.30;;;;;;;7.36;67.37;100444.91;5028052;27;102517;-53
2023/12/12 00:37:05;;;;;;;5.47;2.27;;;;;;;7.34;67.26;100444.66;5010228;27;98636;-52
2023/12/12 00:39:30;;;;;;;5.37;2.40;;;;;;;7.31;67.42;100447.66;5027891;27;97132;-52
2023/12/12 00:41:56;;;;;;;5.03;2.07;;;;;;;7.26;67.43;100445.66;5027412;27;97436;-53
2023/12/12 00:44:21;;;;;;;4.23;2.10;;;;;;;7.22;67.36;100456.16;5027864;27;96758;-54
2023/12/12 00:46:47;;;;;;;4.43;2.13;;;;;;;7.22;67.45;100440.41;5025911;27;112902;-52
2023/12/12 00:49:12;;;;;;;2.23;1.83;;;;;;;7.20;67.37;100447.66;5027054;27;111600;-52
2023/12/12 00:51:38;;;;;;;7.27;2.17;;;;;;;7.17;67.55;100438.38;5025203;27;97066;-52
2023/12/12 00:54:04;;;;;;;2.50;2.30;;;;;;;7.16;67.32;100438.88;5025932;27;97235;-54
2023/12/12 00:56:29;;;;;;;4.50;2.20;;;;;;;7.18;67.36;100444.63;5027708;27;98004;-53
2023/12/12 00:58:55;;;;;;;3.93;2.07;;;;;;;7.18;67.43;100447.41;5026999;27;96759;-53
2023/12/12 01:01:20;;;;;;;8.57;2.27;;;;;;;7.16;67.21;100447.13;5027791;27;98846;-52
2023/12/12 01:03:45;;;;;;;4.30;1.80;;;;;;;7.15;67.33;100449.13;5028363;27;97424;-53
2023/12/12 01:06:22;;;;;;;5.27;1.83;;;;;;;7.13;67.03;100450.88;5026334;27;111222;-52
2023/12/12 01:08:47;;;;;;;5.00;2.27;;;;;;;7.12;67.22;100449.34;5025743;27;97182;-57
2023/12/12 01:11:12;;;;;;;2.07;1.97;;;;;;;7.11;67.04;100453.38;5027532;27;97476;-54
2023/12/12 01:13:37;;;;;;;3.73;1.80;;;;;;;7.09;67.10;100447.63;5026461;27;101471;-52
2023/12/12 01:16:03;;;;;;;3.63;2.17;;;;;;;7.05;67.26;100453.34;5025142;27;107739;-52
2023/12/12 01:18:31;;;;;;;3.93;1.90;;;;;;;7.01;67.12;100450.84;5025347;27;97078;-55
2023/12/12 01:20:56;;;;;;;6.43;2.30;;;;;;;7.01;67.03;100458.34;5026513;27;97022;-52
2023/12/12 01:23:21;;;;;;;5.50;2.30;;;;;;;6.99;67.11;100452.59;5028365;27;97554;-52
2023/12/12 01:25:47;;;;;;;3.90;2.20;;;;;;;6.97;67.06;100458.59;5025643;27;97245;-51
2023/12/12 01:28:12;;;;;;;7.47;2.20;;;;;;;6.97;67.18;100466.84;5027818;27;97161;-53
2023/12/12 01:30:37;;;;;;;5.67;1.70;;;;;;;6.97;67.09;100464.09;5027827;27;97234;-53
2023/12/12 01:33:03;;;;;;;9.13;2.10;;;;;;;6.96;67.08;100453.59;5026784;27;101599;-52
2023/12/12 01:35:28;;;;;;;3.83;2.17;;;;;;;6.95;67.03;100469.34;5026267;27;97072;-53
2023/12/12 01:37:53;;;;;;;4.57;1.90;;;;;;;6.94;67.05;100465.06;5025834;27;97065;-51
2023/12/12 01:40:18;;;;;;;4.03;1.73;;;;;;;6.94;67.05;100465.06;5027229;27;101867;-53
2023/12/12 01:42:44;;;;;;;4.57;2.10;;;;;;;6.95;66.91;100466.59;5024627;27;99789;-53
2023/12/12 01:45:09;;;;;;;5.63;2.27;;;;;;;6.93;67.04;100468.31;5027089;27;102646;-52
2023/12/12 01:47:35;;;;;;;6.10;2.20;;;;;;;6.91;67.14;100468.84;5026729;27;97626;-53
2023/12/12 01:50:00;;;;;;;7.33;2.33;;;;;;;6.89;67.08;100468.56;5027659;27;96774;-53
2023/12/12 01:52:26;;;;;;;5.30;1.90;;;;;;;6.89;67.06;100468.56;5027530;27;97313;-53
2023/12/12 01:54:52;;;;;;;3.20;1.90;;;;;;;6.88;66.87;100469.06;5028099;27;97583;-53
2023/12/12 01:57:20;;;;;;;3.40;1.93;;;;;;;6.86;67.01;100472.31;5029381;27;97118;-52
2023/12/12 01:59:46;;;;;;;5.93;1.80;;;;;;;6.87;66.94;100473.81;5030513;27;97348;-52
2023/12/12 02:02:12;;;;;;;5.83;1.80;;;;;;;6.87;66.98;100462.81;5030999;27;96898;-53
2023/12/12 02:04:38;;;;;;;2.20;1.90;;;;;;;6.89;66.95;100462.31;5027286;27;97208;-53
2023/12/12 02:07:04;;;;;;;4.87;2.10;;;;;;;6.90;66.89;100463.81;5027079;27;96770;-51
2023/12/12 02:09:30;;;;;;;3.80;2.27;;;;;;;6.89;67.00;100468.56;5031357;27;97094;-53
2023/12/12 02:11:55;;;;;;;4.33;2.10;;;;;;;6.89;66.84;100465.06;5013755;27;96899;-53
2023/12/12 02:14:21;;;;;;;6.70;1.87;;;;;;;6.89;66.86;100454.81;5031849;27;98454;-52
2023/12/12 02:16:46;;;;;;;5.50;1.87;;;;;;;6.88;66.93;100450.56;5028342;27;97125;-52
2023/12/12 02:19:12;;;;;;;6.83;1.73;;;;;;;6.87;66.77;100454.56;5029426;27;97208;-51
2023/12/12 02:21:37;;;;;;;4.30;1.87;;;;;;;6.87;66.83;100451.06;5030910;27;97001;-52
2023/12/12 02:24:03;;;;;;;4.40;1.47;;;;;;;6.85;66.63;100448.06;5029126;27;97082;-52
2023/12/12 02:26:28;;;;;;;3.63;1.83;;;;;;;6.84;66.75;100441.81;5027898;27;97161;-52
2023/12/12 02:28:53;;;;;;;4.90;1.70;;;;;;;6.82;66.70;100444.31;5030224;27;97119;-52
2023/12/12 02:31:19;;;;;;;2.87;1.53;;;;;;;6.83;66.73;100448.53;5029138;27;97238;-52
2023/12/12 02:33:44;;;;;;;7.73;2.10;;;;;;;6.83;66.66;100447.81;5031178;27;99273;-52
2023/12/12 02:36:09;;;;;;;6.10;2.37;;;;;;;6.82;66.65;100447.03;5031301;27;97557;-52
2023/12/12 02:38:35;;;;;;;5.20;1.90;;;;;;;6.81;66.68;100455.81;5028898;27;97299;-52
2023/12/12 02:41:00;;;;;;;1.90;1.30;;;;;;;6.78;66.73;100452.03;5029331;27;96959;-54
2023/12/12 02:43:25;;;;;;;3.80;1.60;;;;;;;6.74;66.63;100448.03;5029289;27;106407;-52
2023/12/12 02:45:51;;;;;;;1.87;1.40;;;;;;;6.69;66.54;100455.00;5027956;27;96774;-51
2023/12/12 02:48:16;;;;;;;2.73;2.00;;;;;;;6.65;66.60;100464.72;5029276;27;96977;-52
2023/12/12 02:50:41;;;;;;;6.60;1.80;;;;;;;6.61;66.53;100459.44;5028596;27;97426;-52
2023/12/12 02:53:07;;;;;;;3.13;1.70;;;;;;;6.59;66.65;100456.41;5029162;27;97587;-53
2023/12/12 02:55:32;;;;;;;6.70;1.80;;;;;;;6.60;66.79;100460.69;5031863;27;105219;-51
2023/12/12 02:57:57;;;;;;;6.63;2.03;;;;;;;6.59;66.75;100459.16;5031763;27;97133;-52
2023/12/12 03:00:23;;;;;;;4.63;1.60;;;;;;;6.59;66.66;100456.41;5034087;27;97085;-53
2023/12/12 03:02:48;;;;;;;3.67;1.80;;;;;;;6.57;66.70;100458.91;5026738;27;97508;-54
2023/12/12 03:05:15;;;;;;;3.67;1.70;;;;;;;6.56;66.63;100459.41;5028633;27;97264;-51
2023/12/12 03:07:40;;;;;;;3.90;2.10;;;;;;;6.56;66.78;100460.16;5027668;27;96771;-52
2023/12/12 03:10:06;;;;;;;5.07;1.80;;;;;;;6.56;66.65;100456.66;5030690;27;97194;-53
2023/12/12 03:12:31;;;;;;;2.83;2.10;;;;;;;6.54;66.71;100459.16;5029936;27;97366;-54
2023/12/12 03:14:57;;;;;;;3.67;2.03;;;;;;;6.51;66.74;100460.13;5029086;27;104998;-52
2023/12/12 03:17:22;;;;;;;3.67;1.87;;;;;;;6.48;66.79;100447.38;5026409;27;99257;-52
2023/12/12 03:19:47;;;;;;;5.87;1.97;;;;;;;6.48;66.95;100453.63;5031874;27;99672;-51
2023/12/12 03:22:13;;;;;;;3.90;1.43;;;;;;;6.48;66.77;100447.38;5028036;27;99481;-52
2023/12/12 03:24:38;;;;;;;7.13;2.13;;;;;;;6.48;66.83;100447.38;5027876;27;97385;-52
2023/12/12 03:27:06;;;;;;;3.03;1.43;;;;;;;6.48;66.85;100445.38;5029188;27;97216;-54
2023/12/12 03:29:31;;;;;;;4.33;1.83;;;;;;;6.50;66.69;100448.41;5031121;27;97031;-51
2023/12/12 03:31:56;;;;;;;3.03;1.73;;;;;;;6.49;66.63;100446.13;5026731;27;97114;-52
2023/12/12 03:34:22;;;;;;;7.03;1.97;;;;;;;6.49;66.79;100446.88;5029609;27;102326;-53
2023/12/12 03:36:47;;;;;;;4.37;1.60;;;;;;;6.51;66.72;100446.38;5027396;27;103335;-53
2023/12/12 03:39:12;;;;;;;8.37;1.87;;;;;;;6.52;66.70;100445.91;5028896;27;97199;-52
2023/12/12 03:41:38;;;;;;;5.27;1.67;;;;;;;6.52;66.74;100437.66;5027014;27;97826;-53
2023/12/12 03:44:04;;;;;;;4.37;1.57;;;;;;;6.53;66.49;100430.16;5027266;27;97185;-52
2023/12/12 03:46:29;;;;;;;2.77;1.67;;;;;;;6.54;66.66;100428.91;5029963;27;97037;-51
2023/12/12 03:48:55;;;;;;;3.27;1.63;;;;;;;6.53;66.59;100428.16;5028517;27;97092;-53
2023/12/12 03:51:20;;;;;;;5.10;1.63;;;;;;;6.52;66.58;100434.91;5027926;27;98687;-53
2023/12/12 03:53:45;;;;;;;2.10;1.90;;;;;;;6.52;66.56;100432.16;5029187;27;102089;-52
2023/12/12 03:56:10;;;;;;;7.13;2.00;;;;;;;6.53;66.60;100433.66;5025955;27;104730;-52
2023/12/12 03:58:36;;;;;;;7.80;1.93;;;;;;;6.55;66.55;100428.41;5026426;27;96805;-52
2023/12/12 04:01:01;;;;;;;2.10;1.60;;;;;;;6.55;66.47;100439.41;5027536;27;97512;-53
2023/12/12 04:03:27;;;;;;;2.50;1.93;;;;;;;6.56;66.43;100440.16;5030920;27;98346;-53
2023/12/12 04:05:52;;;;;;;3.63;1.70;;;;;;;6.56;66.31;100440.94;5031551;27;97267;-52
2023/12/12 04:08:18;;;;;;;5.80;1.83;;;;;;;6.56;66.40;100435.44;5027626;27;97246;-52
2023/12/12 04:10:43;;;;;;;2.70;1.37;;;;;;;6.56;66.50;100445.66;5028015;27;97775;-52
2023/12/12 04:13:09;;;;;;;4.07;1.80;;;;;;;6.57;66.42;100447.19;5030062;27;98917;-52
2023/12/12 04:15:35;;;;;;;5.80;1.73;;;;;;;6.56;66.52;100451.91;5029477;27;97100;-52
2023/12/12 04:18:00;;;;;;;5.40;2.10;;;;;;;6.53;66.41;100444.66;5027663;27;96834;-52
2023/12/12 04:20:25;;;;;;;2.80;1.90;;;;;;;6.55;66.38;100457.88;5030862;27;97282;-52
2023/12/12 04:22:51;;;;;;;6.23;2.20;;;;;;;6.53;66.60;100457.63;5029806;27;98570;-52
2023/12/12 04:25:16;;;;;;;4.67;2.20;;;;;;;6.51;66.37;100454.63;5027186;27;99242;-52
2023/12/12 04:27:42;;;;;;;5.40;1.90;;;;;;;6.52;66.48;100456.16;5028470;27;97293;-52
2023/12/12 04:30:08;;;;;;;3.37;1.60;;;;;;;6.54;66.29;100459.91;5029985;27;97248;-52
2023/12/12 04:32:33;;;;;;;3.70;1.90;;;;;;;6.51;66.29;100463.63;5026738;27;98061;-52
2023/12/12 04:35:00;;;;;;;4.63;1.80;;;;;;;6.51;66.54;100458.13;5027656;27;97371;-52
2023/12/12 04:37:25;;;;;;;1.73;1.50;;;;;;;6.48;66.45;100458.38;5029317;27;97054;-53
2023/12/12 04:39:51;;;;;;;5.17;1.90;;;;;;;6.53;66.47;100461.13;5027304;27;98602;-53
2023/12/12 04:42:16;;;;;;;2.47;1.37;;;;;;;6.55;66.50;100464.16;5025709;27;107227;-52
2023/12/12 04:44:41;;;;;;;1.70;1.60;;;;;;;6.56;66.42;100457.41;5027011;27;97033;-52
2023/12/12 04:47:07;;;;;;;3.30;1.53;;;;;;;6.58;66.18;100463.16;5024436;27;96902;-52
2023/12/12 04:49:33;;;;;;;7.90;2.00;;;;;;;6.58;66.28;100460.41;5013285;27;98750;-52
2023/12/12 04:51:58;;;;;;;5.63;1.67;;;;;;;6.57;66.38;100466.41;5028686;27;97459;-52
2023/12/12 04:54:23;;;;;;;2.47;1.60;;;;;;;6.59;66.31;100467.41;5020044;27;97227;-52
2023/12/12 04:56:49;;;;;;;3.40;1.77;;;;;;;6.60;66.40;100471.66;5025646;27;96955;-52
2023/12/12 04:59:14;;;;;;;2.63;1.87;;;;;;;6.63;66.11;100467.22;5025693;27;110971;-52
2023/12/12 05:01:39;;;;;;;3.83;1.73;;;;;;;6.61;66.24;100462.19;5026801;27;109345;-52
2023/12/12 05:04:05;;;;;;;3.77;1.57;;;;;;;6.61;65.94;100469.72;5026562;27;96988;-54
2023/12/12 05:06:30;;;;;;;2.20;1.23;;;;;;;6.58;66.25;100463.16;5022405;27;96941;-52
2023/12/12 05:08:55;;;;;;;3.23;1.30;;;;;;;6.59;66.28;100467.41;5026898;27;97402;-52
2023/12/12 05:11:21;;;;;;;3.90;1.60;;;;;;;6.60;66.30;100474.41;5023073;27;104897;-52
2023/12/12 05:13:46;;;;;;;6.97;1.90;;;;;;;6.62;66.30;100462.94;5023945;27;97136;-52
2023/12/12 05:16:12;;;;;;;4.43;1.50;;;;;;;6.61;66.06;100469.72;5029768;27;97058;-52
2023/12/12 05:18:38;;;;;;;1.50;1.40;;;;;;;6.60;66.27;100468.91;5011700;27;97083;-53
2023/12/12 05:21:03;;;;;;;5.13;1.27;;;;;;;6.61;66.09;100473.19;5025074;27;97361;-52
2023/12/12 05:23:29;;;;;;;2.40;1.57;;;;;;;6.61;66.45;100464.94;5026813;27;97287;-51
2023/12/12 05:25:54;;;;;;;4.90;1.77;;;;;;;6.59;66.21;100467.41;5026359;27;96891;-51
2023/12/12 05:28:21;;;;;;;3.23;1.90;;;;;;;6.59;66.21;100466.69;5030514;27;97278;-52
2023/12/12 05:30:46;;;;;;;4.20;1.47;;;;;;;6.60;66.27;100466.16;5035048;27;97376;-53
2023/12/12 05:33:12;;;;;;;2.47;1.30;;;;;;;6.58;66.26;100468.66;5031540;27;97255;-53
2023/12/12 05:35:38;;;;;;;6.30;1.90;;;;;;;6.58;66.19;100474.16;5028964;27;97321;-53
2023/12/12 05:38:03;;;;;;;4.30;1.40;;;;;;;6.58;66.20;100471.41;5031442;27;97033;-51
2023/12/12 05:40:29;;;;;;;7.33;1.70;;;;;;;6.57;65.98;100475.41;5029788;27;98232;-53
2023/12/12 05:42:55;;;;;;;5.80;1.60;;;;;;;6.55;66.15;100477.88;5031647;27;97199;-52
2023/12/12 05:45:20;;;;;;;1.83;1.10;;;;;;;6.52;66.12;100476.13;5032782;27;97296;-52
2023/12/12 05:47:46;;;;;;;1.60;1.40;;;;;;;6.53;66.21;100480.38;5029467;27;97063;-51
2023/12/12 05:50:11;;;;;;;1.80;1.10;;;;;;;6.53;66.17;100479.63;5027996;27;97016;-53
2023/12/12 05:52:37;;;;;;;4.23;1.40;;;;;;;6.52;66.25;100487.13;5028708;27;97002;-53
2023/12/12 05:55:05;;;;;;;5.33;1.53;;;;;;;6.52;66.15;100486.38;5028558;27;97164;-53
2023/12/12 05:57:31;;;;;;;1.63;1.50;;;;;;;6.52;66.22;100484.38;5029262;27;97131;-52
2023/12/12 05:59:56;;;;;;;3.37;1.30;;;;;;;6.52;66.11;100484.38;5032753;27;97113;-51
2023/12/12 06:02:22;;;;;;;2.93;1.47;;;;;;;6.51;66.29;100485.63;5030278;27;97125;-52
2023/12/12 06:04:48;;;;;;;2.90;1.90;;;;;;;6.51;66.10;100493.09;5029578;27;99911;-51
2023/12/12 06:07:13;;;;;;;3.20;1.73;;;;;;;6.50;66.04;100497.09;5031856;27;97726;-50
2023/12/12 06:09:39;;;;;;;5.37;2.00;;;;;;;6.48;65.97;100489.34;5029803;27;97386;-51
2023/12/12 06:12:06;;;;;;;3.40;1.77;;;;;;;6.46;66.23;100497.31;5027319;27;96606;-52
2023/12/12 06:14:31;;;;;;;2.57;1.97;;;;;;;6.44;65.89;100493.59;5029015;27;96685;-51
2023/12/12 06:16:56;;;;;;;3.97;1.80;;;;;;;6.43;66.14;100492.06;5032359;27;102220;-52
2023/12/12 06:19:21;;;;;;;4.50;1.70;;;;;;;6.41;66.02;100486.31;5032816;27;110729;-53
2023/12/12 06:21:51;;;;;;;3.87;1.50;;;;;;;6.39;66.16;100508.78;5030208;27;96745;-53
2023/12/12 06:24:17;;;;;;;5.70;1.87;;;;;;;6.39;66.13;100488.81;5029205;27;96933;-53
2023/12/12 06:26:42;;;;;;;3.33;1.87;;;;;;;6.37;66.02;100489.31;5029010;27;97065;-51
2023/12/12 06:29:09;;;;;;;4.67;1.90;;;;;;;6.32;66.12;100496.28;5029322;27;96609;-52
2023/12/12 06:31:35;;;;;;;1.97;1.47;;;;;;;6.30;65.89;100487.75;5031727;27;97103;-52
2023/12/12 06:34:01;;;;;;;2.93;1.60;;;;;;;6.29;66.07;100489.00;5029418;27;97080;-53
2023/12/12 06:36:26;;;;;;;4.50;2.10;;;;;;;6.24;66.00;100492.44;5027586;27;97309;-51
2023/12/12 06:38:51;;;;;;;7.03;1.80;;;;;;;6.17;65.99;100492.16;5031322;27;102421;-52
2023/12/12 06:41:17;;;;;;;5.13;2.23;;;;;;;6.12;65.82;100490.13;5030869;27;96848;-53
2023/12/12 06:43:45;;;;;;;4.70;1.87;;;;;;;6.05;65.93;100496.06;5031432;27;97198;-51
2023/12/12 06:46:10;;;;;;;2.90;1.40;;;;;;;5.97;65.91;100495.00;5028076;27;97061;-52
2023/12/12 06:48:37;;;;;;;5.10;2.20;;;;;;;5.92;65.87;100499.22;5031144;27;98540;-53
2023/12/12 06:51:03;;;;;;;5.43;1.73;;;;;;;5.86;65.87;100498.44;5030209;27;96916;-52
2023/12/12 06:53:29;;;;;;;5.77;1.60;;;;;;;5.79;65.93;100489.88;5031892;27;97060;-52
2023/12/12 06:55:54;;;;;;;3.43;1.80;;;;;;;5.72;65.82;100484.84;5027946;27;97521;-53
2023/12/12 06:58:22;;;;;;;1.80;1.70;;;;;;;5.66;65.86;100486.78;5031312;27;110912;-52
2023/12/12 07:00:47;;;;;;;6.03;2.17;;;;;;;5.60;65.88;100494.22;5026210;27;96954;-51
2023/12/12 07:03:12;;;;;;;1.73;1.60;;;;;;;5.53;65.71;100485.19;5031896;27;96754;-52
2023/12/12 07:05:38;;;;;;;3.67;1.87;;;;;;;5.47;65.71;100489.13;5032457;27;96790;-53
2023/12/12 07:08:04;;;;;;;2.60;1.70;;;;;;;5.39;65.77;100488.78;5028850;27;97270;-52
2023/12/12 07:10:30;;;;;;;1.77;1.67;;;;;;;5.33;65.73;100479.75;5026527;27;96782;-52
2023/12/12 07:12:56;;;;;;;3.67;1.80;;;;;;;5.30;65.86;100485.47;5030467;27;97079;-51
2023/12/12 07:15:23;;;;;;;1.53;1.43;;;;;;;5.24;65.87;100479.16;5028035;27;97189;-53
2023/12/12 07:17:48;;;;;;;3.67;1.93;;;;;;;5.19;65.84;100486.06;5027902;27;96571;-53
2023/12/12 07:20:14;;;;;;;4.77;2.17;;;;;;;5.11;65.71;100487.75;5030189;27;96670;-51
2023/12/12 07:22:39;;;;;;;3.30;1.63;;;;;;;5.07;65.73;100483.69;5030169;27;97018;-52
2023/12/12 07:25:05;;;;;;;2.17;1.77;;;;;;;5.02;65.83;100487.88;5027531;27;97966;-52
2023/12/12 07:27:31;;;;;;;5.47;1.97;;;;;;;4.99;65.61;100497.09;5026163;27;97448;-52
2023/12/12 07:29:57;;;;;;;2.60;1.93;;;;;;;4.95;65.77;100504.00;5013691;27;97201;-52
2023/12/12 07:32:23;;;;;;;6.40;2.10;;;;;;;4.90;65.77;100497.22;5031808;27;97424;-52
2023/12/12 07:34:49;;;;;;;5.23;2.10;;;;;;;4.86;65.66;100493.19;5025673;27;97547;-52
2023/12/12 07:37:14;;;;;;;10.70;2.53;;;;;;;4.84;65.68;100496.41;5034177;27;97687;-52
2023/12/12 07:39:39;;;;;;;2.90;2.03;;;;;;;4.79;65.81;100505.31;5030416;27;97138;-52
2023/12/12 07:42:05;;;;;;;3.83;2.33;;;;;;;4.77;65.88;100503.06;5033101;27;97074;-52
2023/12/12 07:44:30;;;;;;;2.07;1.97;;;;;;;4.73;65.67;100501.72;5028077;27;97486;-52
2023/12/12 07:46:55;;;;;;;4.37;2.80;;;;;;;4.69;65.71;100498.44;5026057;27;112096;-52
2023/12/12 07:49:21;;;;;;;6.70;2.90;;;;;;;4.65;65.69;100498.63;5031881;27;96745;-52
2023/12/12 07:51:46;;;;;;;6.30;2.67;;;;;;;4.64;65.58;100499.88;5030869;27;97300;-52
2023/12/12 07:54:12;;;;;;;6.27;3.37;;;;;;;4.62;65.56;100501.59;5025978;27;96865;-51
2023/12/12 07:56:37;;;;;;;3.97;2.40;;;;;;;4.64;65.85;100507.34;5026291;27;98056;-52
2023/12/12 07:59:03;;;;;;;2.60;2.33;;;;;;;4.64;65.61;100504.59;5027552;27;97448;-52
2023/12/12 08:01:29;;;;;;;6.83;2.13;;;;;;;4.62;65.93;100502.34;5028460;27;97206;-52
2023/12/12 08:03:54;;;;;;;2.60;2.40;;;;;;;4.61;65.90;100509.03;5026258;27;98854;-52
2023/12/12 08:06:20;;;;;;;3.93;2.70;;;;;;;4.63;65.74;100508.56;5028065;27;96861;-52
2023/12/12 08:08:45;;;;;;;10.33;3.40;;;;;;;4.61;65.74;100500.81;5029202;27;96938;-52
2023/12/12 08:11:15;;;;;;;5.10;2.73;;;;;;;4.62;65.75;100504.31;5030955;27;97270;-52
2023/12/12 08:13:40;;;;;;;7.90;2.93;;;;;;;4.61;65.89;100505.53;5026963;27;97455;-52
2023/12/12 08:16:06;;;;;;;3.63;2.43;;;;;;;4.61;65.92;100500.81;5028260;27;97252;-52
2023/12/12 08:18:31;;;;;;;8.03;3.50;;;;;;;4.67;66.13;100509.88;5029211;27;97068;-52
2023/12/12 08:20:57;;;;;;;7.00;3.20;;;;;;;4.70;65.81;100505.41;5027557;27;96921;-52
2023/12/12 08:23:23;;;;;;;4.73;3.60;;;;;;;4.72;66.03;100502.94;5026578;27;96918;-52
2023/12/12 08:25:48;;;;;;;3.80;3.00;;;;;;;4.72;65.75;100502.94;5026734;27;97673;-52
2023/12/12 08:28:14;;;;;;;5.77;3.07;;;;;;;4.75;65.81;100500.06;5033264;27;97233;-52
2023/12/12 08:30:39;;;;;;;4.23;3.50;;;;;;;4.78;65.94;100495.56;5028845;27;97076;-52
2023/12/12 08:33:05;;;;;;;3.90;3.10;;;;;;;4.80;65.79;100504.84;5028984;27;96954;-52
2023/12/12 08:35:30;;;;;;;5.30;2.80;;;;;;;4.84;66.11;100503.88;5025543;27;97135;-52
2023/12/12 08:37:55;;;;;;;9.03;3.80;;;;;;;4.87;65.80;100497.41;5027146;27;97116;-52
2023/12/12 08:40:21;;;;;;;7.60;3.73;;;;;;;4.90;65.91;100499.22;5025569;27;96630;-52
2023/12/12 08:42:48;;;;;;;8.60;3.80;;;;;;;4.97;66.18;100509.78;5025242;27;100928;-52
2023/12/12 08:45:13;;;;;;;4.13;3.27;;;;;;;5.01;65.92;100500.09;5027084;27;97302;-52
2023/12/12 08:47:38;;;;;;;4.47;3.40;;;;;;;5.06;65.94;100498.66;5027282;27;97220;-52
2023/12/12 08:50:04;;;;;;;7.50;3.50;;;;;;;5.07;65.93;100495.44;5026926;27;97259;-52
2023/12/12 08:52:31;;;;;;;4.97;3.33;;;;;;;5.11;65.95;100500.69;5026380;27;97454;-52
2023/12/12 08:54:57;;;;;;;3.87;3.47;;;;;;;5.14;66.19;100502.47;5029880;27;97225;-52
2023/12/12 08:57:23;;;;;;;12.20;4.40;;;;;;;5.18;66.13;100497.53;5026235;27;97563;-52
2023/12/12 08:59:48;;;;;;;8.87;4.00;;;;;;;5.19;66.22;100494.31;5029807;27;97126;-52
2023/12/12 09:02:13;;;;;;;6.43;3.27;;;;;;;5.23;66.10;100500.34;5029634;27;105932;-52
2023/12/12 09:04:39;;;;;;;8.13;3.70;;;;;;;5.25;66.05;100489.66;5029642;27;97170;-51
2023/12/12 09:07:04;;;;;;;4.17;3.63;;;;;;;5.27;66.19;100494.66;5032867;27;97458;-52
2023/12/12 09:09:31;;;;;;;4.37;3.97;;;;;;;5.30;66.33;100497.16;5032111;27;97498;-52
2023/12/12 09:11:57;;;;;;;6.77;4.20;;;;;;;5.33;66.13;100498.94;5029406;27;97186;-52
2023/12/12 09:14:23;;;;;;;4.70;3.03;;;;;;;5.36;66.08;100503.47;5031961;27;97157;-52
2023/12/12 09:16:48;;;;;;;7.73;3.80;;;;;;;5.38;66.13;100506.50;5029119;27;96957;-52
2023/12/12 09:19:16;;;;;;;5.80;4.17;;;;;;;5.41;66.17;100494.53;5032036;27;102299;-52
2023/12/12 09:21:41;;;;;;;5.20;3.80;;;;;;;5.43;66.10;100488.59;5028683;27;96756;-52
2023/12/12 09:24:07;;;;;;;6.57;3.83;;;;;;;5.43;66.21;100494.78;5031205;27;97207;-52
2023/12/12 09:26:32;;;;;;;6.60;3.80;;;;;;;5.47;66.11;100498.09;5030194;27;97436;-51
2023/12/12 09:28:58;;;;;;;7.40;3.90;;;;;;;5.49;66.22;100495.63;5032276;27;96872;-52
2023/12/12 09:31:27;;;;;;;7.40;4.57;;;;;;;5.54;66.26;100500.38;5032381;27;97429;-52
2023/12/12 09:33:54;;;;;;;6.87;4.20;;;;;;;5.60;66.26;100497.72;5027432;27;96741;-52
2023/12/12 09:36:19;;;;;;;5.60;4.37;;;;;;;5.63;66.27;100496.72;5030192;27;97086;-51
2023/12/12 09:38:45;;;;;;;6.90;5.70;;;;;;;5.65;66.31;100496.25;5028582;27;97365;-52
2023/12/12 09:41:22;;;;;;;7.73;4.90;;;;;;;5.68;66.22;100490.53;5035068;27;98017;-52
2023/12/12 09:43:49;;;;;;;6.90;5.70;;;;;;;5.72;66.35;100490.34;5028813;27;96690;-52
2023/12/12 09:46:16;;;;;;;9.30;5.10;;;;;;;5.78;66.44;100491.13;5030588;27;96670;-52
2023/12/12 09:48:47;;;;;;;7.70;5.07;;;;;;;5.85;66.47;100493.44;5033890;27;97024;-52
2023/12/12 09:51:15;;;;;;;7.37;5.13;;;;;;;5.90;66.41;100482.47;5028440;27;96949;-52
2023/12/12 09:53:47;;;;;;;7.70;5.20;;;;;;;5.96;66.44;100477.03;5032648;27;96949;-52
2023/12/12 09:56:17;;;;;;;5.97;5.00;;;;;;;6.01;66.46;100490.03;5029305;27;96735;-52
2023/12/12 09:58:48;;;;;;;9.40;5.30;;;;;;;6.06;66.55;100498.34;5028906;27;97027;-52
2023/12/12 10:01:14;;;;;;;8.47;5.43;;;;;;;6.07;66.40;100493.56;5030678;27;97061;-52
2023/12/12 10:03:40;;;;;;;10.20;5.67;;;;;;;6.11;66.47;100483.88;5028758;27;97276;-52
2023/12/12 10:06:08;;;;;;;17.10;5.87;;;;;;;6.13;66.52;100478.66;5034151;27;97058;-51
2023/12/12 10:08:35;;;;;;;15.00;5.07;;;;;;;6.17;66.63;100483.94;5028102;27;97075;-51
2023/12/12 10:11:01;;;;;;;11.03;5.17;;;;;;;6.22;66.49;100480.44;5029296;27;96922;-52
2023/12/12 10:13:27;;;;;;;6.30;5.30;;;;;;;6.23;66.63;100466.25;5027177;27;96842;-52
2023/12/12 10:15:52;;;;;;;5.47;4.67;;;;;;;6.27;66.62;100468.75;5030869;27;96752;-52
2023/12/12 10:18:18;;;;;;;11.40;5.37;;;;;;;6.30;66.72;100463.03;5031618;27;97391;-52
2023/12/12 10:20:43;;;;;;;5.90;4.83;;;;;;;6.36;66.62;100467.78;5030500;27;97557;-52
2023/12/12 10:23:08;;;;;;;8.50;4.90;;;;;;;6.38;66.59;100460.56;5029901;27;107158;-53
2023/12/12 10:25:35;;;;;;;8.33;4.67;;;;;;;6.37;66.60;100452.81;5029469;27;97157;-53
2023/12/12 10:28:00;;;;;;;8.00;4.90;;;;;;;6.37;66.50;100452.81;5028807;27;97117;-53
2023/12/12 10:30:26;;;;;;;7.33;4.33;;;;;;;6.36;66.68;100454.06;5030299;27;97398;-52
2023/12/12 10:32:53;;;;;;;6.90;3.90;;;;;;;6.41;66.85;100451.34;5030289;27;98470;-52
2023/12/12 10:35:20;;;;;;;10.47;5.43;;;;;;;6.44;66.83;100444.84;5032462;27;97172;-53
2023/12/12 10:37:45;;;;;;;6.57;4.33;;;;;;;6.48;66.90;100442.63;5030436;27;96991;-52
2023/12/12 10:40:12;;;;;;;10.33;4.60;;;;;;;6.55;66.88;100447.66;5029893;27;97414;-53
2023/12/12 10:42:40;;;;;;;7.90;4.70;;;;;;;6.61;66.95;100445.69;5030714;27;97255;-52
2023/12/12 10:45:06;;;;;;;8.50;5.17;;;;;;;6.65;66.86;100438.00;5028325;27;96994;-52
2023/12/12 10:47:39;;;;;;;6.07;4.23;;;;;;;6.70;66.86;100445.50;5031373;27;96721;-52
2023/12/12 10:50:09;;;;;;;7.17;4.30;;;;;;;6.77;66.83;100439.53;5028246;27;97938;-53
2023/12/12 10:52:35;;;;;;;7.83;4.43;;;;;;;6.85;66.86;100426.06;5030950;27;97150;-53
2023/12/12 10:55:01;;;;;;;5.57;4.47;;;;;;;6.93;66.81;100422.34;5032374;27;96767;-52
2023/12/12 10:57:29;;;;;;;9.20;4.87;;;;;;;6.99;66.90;100425.84;5032185;27;97500;-52
2023/12/12 10:59:56;;;;;;;9.03;4.53;;;;;;;7.04;66.79;100418.84;5027090;27;97564;-52
2023/12/12 11:02:23;;;;;;;13.17;4.70;;;;;;;7.07;66.72;100415.84;5028451;27;97359;-52
2023/12/12 11:04:49;;;;;;;8.60;4.90;;;;;;;7.12;66.84;100416.34;5028486;27;96967;-52
2023/12/12 11:07:15;;;;;;;7.47;5.17;;;;;;;7.17;66.84;100404.59;5027953;27;97442;-52
2023/12/12 11:09:41;;;;;;;9.73;4.80;;;;;;;7.21;66.88;100396.84;5028638;27;97285;-52
2023/12/12 11:12:08;;;;;;;8.07;5.17;;;;;;;7.23;66.74;100405.34;5028117;27;97061;-52
2023/12/12 11:14:34;;;;;;;5.60;4.50;;;;;;;7.22;66.84;100396.38;5029813;27;97038;-52
2023/12/12 11:16:59;;;;;;;8.30;4.80;;;;;;;7.23;66.97;100394.34;5027619;27;97183;-52
2023/12/12 11:19:26;;;;;;;7.27;4.30;;;;;;;7.26;66.84;100383.13;5027250;27;98664;-52
2023/12/12 11:21:51;;;;;;;7.17;4.93;;;;;;;7.27;66.78;100387.34;5031844;27;98373;-52
2023/12/12 11:24:17;;;;;;;6.17;4.53;;;;;;;7.25;66.71;100389.09;5029057;27;97126;-52